Time;durP1;ratioP1;P1;durP2;ratioP2;P2;SDS_P1;SDS_P2;PMS_P1;PMS_P2;Temp;Humidity;BMP_temperature;BMP_pressure;BME280_temperature;BME280_humidity;BME280_pressure;Samples;Min_cycle;Max_cycle;Signal;HPM_P1;HPM_P2
2022/09/28 00:02:16;;;;;;;16.23;8.55;;;9.40;99.90;;;;;;5072273;28;20067;-76
2022/09/28 00:04:42;;;;;;;14.95;8.75;;;9.40;99.90;;;;;;5072214;28;20044;-76
2022/09/28 00:07:07;;;;;;;15.23;9.45;;;9.40;99.90;;;;;;5067884;28;20554;-76
2022/09/28 00:09:33;;;;;;;12.40;8.20;;;9.40;99.90;;;;;;5071884;28;20036;-76
2022/09/28 00:11:59;;;;;;;14.32;8.98;;;9.30;99.90;;;;;;5072003;28;20044;-76
2022/09/28 00:14:25;;;;;;;15.95;9.35;;;9.30;99.90;;;;;;5064295;28;20115;-76
2022/09/28 00:16:50;;;;;;;15.00;9.10;;;9.30;99.90;;;;;;5065076;28;20043;-76
2022/09/28 00:19:16;;;;;;;12.02;8.90;;;9.30;99.90;;;;;;5064855;28;20036;-76
2022/09/28 00:21:42;;;;;;;14.13;8.82;;;9.30;99.90;;;;;;5073458;28;20040;-76
2022/09/28 00:24:13;;;;;;;13.50;8.75;;;9.30;99.90;;;;;;5064580;28;20047;-76
2022/09/28 00:26:42;;;;;;;14.87;9.03;;;9.20;99.90;;;;;;5066091;28;20101;-76
2022/09/28 00:29:16;;;;;;;12.43;9.13;;;9.30;99.90;;;;;;5065379;28;20594;-76
2022/09/28 00:31:42;;;;;;;14.43;9.88;;;9.20;99.90;;;;;;5031702;28;20112;-76
2022/09/28 00:34:07;;;;;;;12.32;9.20;;;9.20;99.90;;;;;;5048655;28;20117;-76
2022/09/28 00:36:33;;;;;;;15.13;9.80;;;9.20;99.90;;;;;;5037091;28;20044;-76
2022/09/28 00:39:07;;;;;;;15.80;9.70;;;9.20;99.90;;;;;;5031024;28;20075;-76
2022/09/28 00:41:33;;;;;;;13.23;9.27;;;9.20;99.90;;;;;;5034789;28;20045;-76
2022/09/28 00:44:21;;;;;;;17.92;9.88;;;9.20;99.90;;;;;;5033752;28;20513;-76
2022/09/28 00:46:49;;;;;;;18.48;10.15;;;9.10;99.90;;;;;;5034238;28;20511;-76
2022/09/28 00:49:20;;;;;;;13.88;9.68;;;9.10;99.90;;;;;;5032303;28;20518;-76
2022/09/28 00:51:47;;;;;;;13.10;9.50;;;9.10;99.90;;;;;;5034565;28;20041;-76
2022/09/28 00:54:14;;;;;;;13.98;9.52;;;9.10;99.90;;;;;;5034982;28;20052;-76
2022/09/28 00:56:43;;;;;;;16.98;10.25;;;9.00;99.90;;;;;;5045470;28;20048;-76
2022/09/28 00:59:09;;;;;;;12.80;9.90;;;9.00;99.90;;;;;;5034661;28;20411;-76
2022/09/28 01:01:35;;;;;;;16.23;9.75;;;9.00;99.90;;;;;;5050658;28;20044;-76
2022/09/28 01:04:03;;;;;;;13.07;9.25;;;9.00;99.90;;;;;;5034836;28;20029;-77
2022/09/28 01:06:32;;;;;;;13.13;9.57;;;9.00;99.90;;;;;;5031885;28;20072;-76
2022/09/28 01:09:02;;;;;;;13.93;9.60;;;9.10;99.90;;;;;;5030155;28;20055;-76
2022/09/28 01:11:32;;;;;;;15.73;9.32;;;9.00;99.90;;;;;;5033768;28;20445;-76
2022/09/28 01:13:59;;;;;;;14.05;9.48;;;9.00;99.90;;;;;;5051858;28;20064;-76
2022/09/28 01:16:43;;;;;;;14.23;10.05;;;9.00;99.90;;;;;;5033080;28;20613;-76
2022/09/28 01:19:43;;;;;;;14.65;10.43;;;9.00;99.90;;;;;;5031608;28;20079;-76
2022/09/28 01:22:33;;;;;;;16.85;10.25;;;9.00;99.90;;;;;;5034197;28;20530;-76
2022/09/28 01:25:15;;;;;;;17.38;11.15;;;8.90;99.90;;;;;;5037830;28;20051;-76
2022/09/28 01:27:46;;;;;;;15.77;10.55;;;9.00;99.90;;;;;;5031102;28;20048;-76
2022/09/28 01:30:18;;;;;;;16.25;11.05;;;8.90;99.90;;;;;;5045882;28;20048;-76
2022/09/28 01:32:54;;;;;;;15.32;11.68;;;8.90;99.90;;;;;;5070539;28;20367;-76
2022/09/28 01:35:33;;;;;;;15.48;10.85;;;8.90;99.90;;;;;;5062285;28;20052;-76
2022/09/28 01:38:20;;;;;;;16.27;11.68;;;8.90;99.90;;;;;;5067659;28;20040;-76
2022/09/28 01:40:46;;;;;;;16.33;11.02;;;8.90;99.90;;;;;;5061045;28;20090;-76
2022/09/28 01:43:25;;;;;;;19.38;12.00;;;8.90;99.90;;;;;;5068942;28;20130;-76
2022/09/28 01:45:55;;;;;;;17.33;11.70;;;8.80;99.90;;;;;;5064391;28;20425;-76
2022/09/28 01:48:53;;;;;;;18.38;12.45;;;8.80;99.90;;;;;;5066562;28;20037;-76
2022/09/28 01:51:28;;;;;;;16.20;10.52;;;8.80;99.90;;;;;;5057976;28;20086;-75
2022/09/28 01:53:59;;;;;;;15.63;9.27;;;8.70;99.90;;;;;;5069808;28;20047;-76
2022/09/28 01:56:39;;;;;;;12.05;8.35;;;8.70;99.90;;;;;;5060930;28;20041;-75
2022/09/28 01:59:25;;;;;;;15.57;9.93;;;8.70;99.90;;;;;;5070144;28;20422;-75
2022/09/28 02:02:02;;;;;;;14.65;10.13;;;8.70;99.90;;;;;;5069454;28;20036;-76
2022/09/28 02:04:49;;;;;;;16.13;10.90;;;8.60;99.90;;;;;;5071460;28;20037;-75
2022/09/28 02:07:36;;;;;;;17.42;10.88;;;8.60;99.90;;;;;;5067330;28;20049;-76
2022/09/28 02:10:11;;;;;;;14.40;10.02;;;8.60;99.90;;;;;;5070658;28;20047;-76
2022/09/28 02:12:47;;;;;;;13.95;9.55;;;8.60;99.90;;;;;;5069887;28;20064;-76
2022/09/28 02:15:27;;;;;;;9.80;7.05;;;8.80;99.90;;;;;;5070212;28;20045;-76
2022/09/28 02:17:53;;;;;;;10.45;7.00;;;8.40;99.90;;;;;;5068023;28;20036;-76
2022/09/28 02:20:20;;;;;;;9.95;6.82;;;8.40;99.90;;;;;;5076477;28;20052;-76
2022/09/28 02:22:46;;;;;;;7.60;5.35;;;8.40;99.90;;;;;;5065544;28;20085;-76
2022/09/28 02:25:26;;;;;;;10.27;6.35;;;8.40;99.90;;;;;;5066217;28;20498;-76
2022/09/28 02:28:03;;;;;;;7.38;5.43;;;8.40;99.90;;;;;;5068368;28;20041;-76
2022/09/28 02:30:32;;;;;;;8.32;5.82;;;8.30;99.90;;;;;;5061595;28;20055;-76
2022/09/28 02:33:20;;;;;;;8.32;6.28;;;8.30;99.90;;;;;;5069008;28;20036;-76
2022/09/28 02:35:46;;;;;;;10.90;6.85;;;8.30;99.90;;;;;;5069729;28;20551;-75
2022/09/28 02:38:13;;;;;;;11.88;7.97;;;8.20;99.90;;;;;;5068149;28;20040;-75
2022/09/28 02:40:42;;;;;;;12.15;8.90;;;8.20;99.90;;;;;;5066359;28;20070;-76
2022/09/28 02:43:31;;;;;;;13.88;9.23;;;8.20;99.90;;;;;;5069604;28;20059;-76
2022/09/28 02:46:02;;;;;;;14.25;8.85;;;8.20;99.90;;;;;;5062788;28;20412;-75
2022/09/28 02:48:31;;;;;;;13.45;8.63;;;8.20;99.90;;;;;;5067679;28;20505;-75
2022/09/28 02:51:05;;;;;;;12.13;8.30;;;8.20;99.90;;;;;;5069436;28;20037;-75
2022/09/28 02:54:00;;;;;;;12.63;8.68;;;8.20;99.90;;;;;;5060725;28;20037;-75
2022/09/28 02:56:40;;;;;;;11.27;8.43;;;8.20;99.90;;;;;;5033593;28;20131;-75
2022/09/28 02:59:36;;;;;;;12.70;9.05;;;8.20;99.90;;;;;;5067260;28;20040;-75
2022/09/28 03:02:33;;;;;;;15.57;10.50;;;8.20;99.90;;;;;;5068944;28;20042;-75
2022/09/28 03:05:11;;;;;;;15.05;10.43;;;8.30;99.90;;;;;;5056634;28;20426;-75
2022/09/28 03:07:51;;;;;;;15.43;10.45;;;8.20;99.90;;;;;;5065913;28;20107;-75
2022/09/28 03:10:38;;;;;;;16.42;10.90;;;8.30;99.90;;;;;;5066904;28;20371;-75
2022/09/28 03:13:06;;;;;;;13.60;10.23;;;8.20;99.90;;;;;;5075712;28;20609;-75
2022/09/28 03:15:34;;;;;;;13.07;9.57;;;8.30;99.90;;;;;;5069325;28;20045;-75
2022/09/28 03:18:00;;;;;;;13.93;9.68;;;8.30;99.90;;;;;;5066433;28;20048;-75
2022/09/28 03:20:27;;;;;;;13.95;10.20;;;8.20;99.90;;;;;;5066287;28;20183;-75
2022/09/28 03:22:53;;;;;;;13.35;9.57;;;8.30;99.90;;;;;;5065621;28;20383;-75
2022/09/28 03:25:18;;;;;;;12.73;9.80;;;8.30;99.90;;;;;;5048470;28;20055;-75
2022/09/28 03:27:44;;;;;;;14.85;10.35;;;8.30;99.90;;;;;;5064462;28;20482;-75
2022/09/28 03:30:11;;;;;;;15.75;11.18;;;8.40;99.90;;;;;;5067477;28;20044;-75
2022/09/28 03:32:37;;;;;;;17.30;12.13;;;8.40;99.90;;;;;;5067974;28;20060;-75
2022/09/28 03:35:04;;;;;;;16.58;11.73;;;8.40;99.90;;;;;;5069006;28;20029;-75
2022/09/28 03:37:30;;;;;;;18.75;12.85;;;8.40;99.90;;;;;;5064147;28;20048;-75
2022/09/28 03:39:56;;;;;;;18.83;13.10;;;8.40;99.90;;;;;;5058046;28;20067;-75
2022/09/28 03:42:21;;;;;;;18.48;12.88;;;8.50;99.90;;;;;;5071459;28;20040;-75
2022/09/28 03:44:47;;;;;;;19.50;13.55;;;8.50;99.90;;;;;;5069101;28;20045;-75
2022/09/28 03:47:14;;;;;;;19.15;13.52;;;8.50;99.90;;;;;;5069893;28;20123;-75
2022/09/28 03:49:40;;;;;;;20.27;13.18;;;8.50;99.90;;;;;;5071384;28;20037;-76
2022/09/28 03:52:06;;;;;;;23.05;13.80;;;8.50;99.90;;;;;;5065695;28;20040;-75
2022/09/28 03:54:31;;;;;;;22.02;13.98;;;8.60;99.90;;;;;;5067010;28;20076;-75
2022/09/28 03:56:57;;;;;;;20.73;14.07;;;8.60;99.90;;;;;;5070718;28;20028;-75
2022/09/28 03:59:22;;;;;;;18.80;13.15;;;8.60;99.90;;;;;;5071224;28;20064;-75
2022/09/28 04:01:49;;;;;;;21.05;13.50;;;8.60;99.90;;;;;;5070498;28;20040;-75
2022/09/28 04:04:15;;;;;;;18.95;12.80;;;8.60;99.90;;;;;;5069590;28;20155;-75
2022/09/28 04:06:40;;;;;;;20.40;12.60;;;8.60;99.90;;;;;;5071157;28;20162;-75
2022/09/28 04:09:06;;;;;;;19.38;12.73;;;8.60;99.90;;;;;;5070733;28;20124;-75
2022/09/28 04:11:31;;;;;;;18.38;11.95;;;8.60;99.90;;;;;;5072044;28;20063;-75
2022/09/28 04:13:57;;;;;;;21.17;12.23;;;8.60;99.90;;;;;;5072158;28;20029;-75
2022/09/28 04:16:23;;;;;;;19.48;13.48;;;8.60;99.90;;;;;;5071191;28;20118;-75
2022/09/28 04:18:48;;;;;;;22.55;14.30;;;8.60;99.90;;;;;;5067700;28;20081;-75
2022/09/28 04:21:16;;;;;;;21.38;14.15;;;8.60;99.90;;;;;;5071906;28;20624;-75
2022/09/28 04:23:43;;;;;;;23.95;13.80;;;8.60;99.90;;;;;;5063816;28;20126;-75
2022/09/28 04:26:17;;;;;;;21.30;13.55;;;8.70;99.90;;;;;;5062100;28;20048;-75
2022/09/28 04:31:29;;;;;;;20.50;13.80;;;8.70;99.90;;;;;;5066219;28;20071;-75
2022/09/28 04:33:56;;;;;;;21.45;14.52;;;8.60;99.90;;;;;;5068539;28;20035;-77
2022/09/28 04:36:23;;;;;;;22.58;14.18;;;8.70;99.90;;;;;;5062961;28;20049;-75
2022/09/28 04:38:53;;;;;;;25.13;15.27;;;8.70;99.90;;;;;;5066999;28;20047;-76
2022/09/28 04:41:21;;;;;;;23.30;15.35;;;8.70;99.90;;;;;;5071276;28;20486;-75
2022/09/28 04:43:47;;;;;;;26.55;16.50;;;8.60;99.90;;;;;;5055057;28;20051;-75
2022/09/28 04:46:12;;;;;;;24.90;15.98;;;8.70;99.90;;;;;;5072100;28;20452;-76
2022/09/28 04:48:38;;;;;;;26.90;17.23;;;8.90;99.90;;;;;;5081591;28;20113;-76
2022/09/28 04:51:03;;;;;;;26.33;17.10;;;8.70;99.90;;;;;;5068807;28;20090;-77
2022/09/28 04:53:29;;;;;;;28.23;17.08;;;8.70;99.90;;;;;;5070358;28;20040;-76
2022/09/28 04:55:59;;;;;;;28.73;17.05;;;8.70;99.90;;;;;;5069155;28;20491;-76
2022/09/28 04:58:25;;;;;;;28.65;17.58;;;8.70;99.90;;;;;;5050169;28;20360;-77
2022/09/28 05:00:52;;;;;;;30.70;17.92;;;8.70;99.90;;;;;;5071339;28;20425;-76
2022/09/28 05:03:18;;;;;;;28.95;18.17;;;8.70;99.90;;;;;;5067092;28;20432;-76
2022/09/28 05:05:44;;;;;;;30.88;18.25;;;8.70;99.90;;;;;;5053028;28;20064;-76
2022/09/28 05:08:10;;;;;;;29.20;18.25;;;8.70;99.90;;;;;;5071281;28;20048;-76
2022/09/28 05:10:39;;;;;;;30.02;18.55;;;8.70;99.90;;;;;;5066948;28;20037;-76
2022/09/28 05:13:06;;;;;;;28.50;17.73;;;8.70;99.90;;;;;;5071185;28;20029;-76
2022/09/28 05:15:33;;;;;;;31.70;18.27;;;8.70;99.90;;;;;;5069915;28;20046;-76
2022/09/28 05:17:59;;;;;;;27.77;17.27;;;8.70;99.90;;;;;;5069242;28;20097;-77
2022/09/28 05:20:24;;;;;;;30.48;18.58;;;8.80;99.90;;;;;;5065198;28;20115;-76
2022/09/28 05:22:50;;;;;;;29.33;17.25;;;8.70;99.90;;;;;;5059895;28;20040;-76
2022/09/28 05:25:15;;;;;;;30.75;17.95;;;8.70;99.90;;;;;;5070368;28;20186;-76
2022/09/28 05:27:41;;;;;;;30.65;19.17;;;8.80;99.90;;;;;;5070640;28;20116;-75
2022/09/28 05:30:09;;;;;;;31.48;18.42;;;8.80;99.90;;;;;;5069902;28;20036;-76
2022/09/28 05:32:43;;;;;;;30.65;17.75;;;8.80;99.90;;;;;;5067394;28;20036;-77
2022/09/28 05:35:10;;;;;;;30.92;17.88;;;8.80;99.90;;;;;;5063723;28;20045;-76
2022/09/28 05:37:36;;;;;;;30.40;17.52;;;8.80;99.90;;;;;;5062664;28;20045;-76
2022/09/28 05:40:03;;;;;;;32.80;18.92;;;8.80;99.90;;;;;;5060522;28;20461;-76
2022/09/28 05:42:29;;;;;;;34.88;18.98;;;8.80;99.90;;;;;;5069710;28;20040;-76
2022/09/28 05:44:57;;;;;;;31.98;19.38;;;8.80;99.90;;;;;;5067301;28;20040;-77
2022/09/28 05:47:24;;;;;;;32.60;19.27;;;8.80;99.90;;;;;;5065848;28;20056;-76
2022/09/28 05:49:50;;;;;;;31.98;19.00;;;8.80;99.90;;;;;;5053545;28;20041;-76
2022/09/28 05:52:16;;;;;;;31.15;18.73;;;8.90;99.90;;;;;;5057997;28;20067;-76
2022/09/28 05:54:41;;;;;;;35.90;19.95;;;8.80;99.90;;;;;;5052533;28;20073;-76
2022/09/28 05:57:07;;;;;;;31.52;18.80;;;8.90;99.90;;;;;;5063693;28;20078;-76
2022/09/28 05:59:34;;;;;;;30.88;18.85;;;8.90;99.90;;;;;;5055386;28;20041;-76
2022/09/28 06:01:59;;;;;;;32.65;18.65;;;8.90;99.90;;;;;;5061443;28;20044;-77
2022/09/28 06:04:25;;;;;;;31.63;18.38;;;8.90;99.90;;;;;;5069748;28;20037;-76
2022/09/28 06:06:51;;;;;;;31.13;17.88;;;9.00;99.90;;;;;;5062345;28;20041;-75
2022/09/28 06:09:16;;;;;;;29.45;18.42;;;9.00;99.90;;;;;;5065091;28;20565;-76
2022/09/28 06:11:42;;;;;;;31.45;18.48;;;9.00;99.90;;;;;;5065954;28;20040;-76
2022/09/28 06:14:08;;;;;;;32.28;18.33;;;9.00;99.90;;;;;;5052898;28;20043;-76
2022/09/28 06:16:33;;;;;;;31.20;19.20;;;9.00;99.90;;;;;;5075276;28;20035;-76
2022/09/28 06:19:00;;;;;;;31.98;19.10;;;9.10;99.90;;;;;;5066954;28;20083;-76
2022/09/28 06:21:25;;;;;;;32.45;19.13;;;9.10;99.90;;;;;;5075601;28;20043;-76
2022/09/28 06:23:51;;;;;;;31.52;19.45;;;9.20;99.90;;;;;;5077459;28;21927;-76
2022/09/28 06:26:17;;;;;;;33.22;19.10;;;9.20;99.90;;;;;;5080673;28;20086;-76
2022/09/28 06:28:42;;;;;;;34.05;19.08;;;9.20;99.90;;;;;;5063480;28;20029;-76
2022/09/28 06:31:08;;;;;;;30.10;18.23;;;9.20;99.90;;;;;;5060190;28;20264;-76
2022/09/28 06:33:34;;;;;;;30.35;19.13;;;9.20;99.90;;;;;;5066348;28;20499;-76
2022/09/28 06:36:00;;;;;;;30.92;18.65;;;9.30;99.90;;;;;;5066838;28;20041;-77
2022/09/28 06:38:26;;;;;;;28.05;18.55;;;9.30;99.90;;;;;;5057631;28;20043;-76
2022/09/28 06:40:52;;;;;;;26.85;17.75;;;9.30;99.90;;;;;;5059987;28;20545;-76
2022/09/28 06:43:18;;;;;;;27.85;17.63;;;9.30;99.90;;;;;;5060671;28;20052;-77
2022/09/28 06:45:50;;;;;;;26.52;17.23;;;9.30;99.90;;;;;;5055418;28;20521;-76
2022/09/28 06:48:16;;;;;;;30.05;17.95;;;9.40;99.90;;;;;;5058587;28;20509;-76
2022/09/28 06:50:42;;;;;;;28.27;16.70;;;9.40;99.90;;;;;;5053883;28;20071;-76
2022/09/28 06:53:10;;;;;;;26.10;16.70;;;9.40;99.90;;;;;;5057412;28;20444;-76
2022/09/28 06:55:47;;;;;;;29.27;17.40;;;9.40;99.90;;;;;;5054151;28;20033;-76
2022/09/28 06:58:16;;;;;;;26.98;16.25;;;9.40;99.90;;;;;;5059021;28;20037;-76
2022/09/28 07:00:41;;;;;;;26.17;17.20;;;9.40;99.90;;;;;;5053410;28;20506;-76
2022/09/28 07:03:10;;;;;;;24.00;15.80;;;9.40;99.90;;;;;;5057686;28;20071;-77
2022/09/28 07:05:41;;;;;;;25.33;16.15;;;9.40;99.90;;;;;;5054660;28;20048;-76
2022/09/28 07:08:07;;;;;;;24.65;16.20;;;9.40;99.90;;;;;;5055858;28;20073;-77
2022/09/28 07:10:33;;;;;;;24.63;15.23;;;9.50;99.90;;;;;;5065799;28;20071;-76
2022/09/28 07:13:03;;;;;;;23.98;15.68;;;9.50;99.90;;;;;;5057468;28;20068;-76
2022/09/28 07:15:29;;;;;;;27.13;15.73;;;9.60;99.90;;;;;;5059602;28;20044;-77
2022/09/28 07:17:57;;;;;;;24.67;15.60;;;9.60;99.90;;;;;;5057514;28;20041;-76
2022/09/28 07:20:24;;;;;;;26.92;15.98;;;9.60;99.90;;;;;;5060394;28;20037;-76
2022/09/28 07:23:08;;;;;;;23.70;15.77;;;9.60;99.90;;;;;;5069802;28;20041;-76
2022/09/28 07:25:35;;;;;;;26.40;15.55;;;9.70;99.90;;;;;;5071969;28;20405;-76
2022/09/28 07:28:03;;;;;;;28.45;15.57;;;9.70;99.90;;;;;;5073100;28;20051;-76
2022/09/28 07:30:33;;;;;;;23.13;15.75;;;9.80;99.90;;;;;;5072991;28;20520;-76
2022/09/28 07:32:59;;;;;;;21.17;14.05;;;9.90;99.90;;;;;;5070850;28;20045;-76
2022/09/28 07:35:25;;;;;;;21.08;13.65;;;10.00;99.90;;;;;;5073069;28;20474;-76
2022/09/28 07:37:59;;;;;;;19.27;12.65;;;10.00;99.90;;;;;;5072546;28;20162;-76
2022/09/28 07:43:11;;;;;;;21.15;13.73;;;10.10;99.90;;;;;;5072582;28;20068;-76
2022/09/28 07:45:37;;;;;;;21.02;13.07;;;10.20;99.90;;;;;;5069892;28;20068;-76
2022/09/28 07:48:03;;;;;;;20.02;12.27;;;10.20;99.90;;;;;;5070433;28;20540;-76
2022/09/28 07:50:29;;;;;;;16.67;11.50;;;10.20;99.90;;;;;;5072186;28;20033;-76
2022/09/28 07:52:56;;;;;;;25.73;11.90;;;10.20;99.90;;;;;;5072466;28;20116;-76
2022/09/28 07:55:21;;;;;;;19.38;12.05;;;10.10;99.90;;;;;;5073862;28;20040;-76
2022/09/28 07:57:54;;;;;;;19.08;12.23;;;10.10;99.90;;;;;;5072867;28;20547;-76
2022/09/28 08:00:20;;;;;;;19.83;11.98;;;10.10;99.90;;;;;;5071921;28;20032;-76
2022/09/28 08:02:47;;;;;;;20.02;12.38;;;10.00;99.90;;;;;;5072912;28;20038;-76
2022/09/28 08:05:12;;;;;;;18.05;12.05;;;10.00;99.90;;;;;;5072327;28;20043;-76
2022/09/28 08:07:38;;;;;;;18.27;11.88;;;10.00;99.90;;;;;;5073506;28;20033;-76
2022/09/28 08:10:04;;;;;;;18.52;12.25;;;10.00;99.90;;;;;;5072905;28;20471;-76
2022/09/28 08:12:30;;;;;;;21.08;11.48;;;10.00;99.90;;;;;;5072317;28;20036;-75
2022/09/28 08:14:55;;;;;;;19.23;11.38;;;10.00;99.90;;;;;;5073516;28;20032;-76
2022/09/28 08:17:21;;;;;;;18.10;11.02;;;10.00;99.90;;;;;;5073379;28;20102;-76
2022/09/28 08:22:31;;;;;;;17.00;10.43;;;10.10;99.90;;;;;;5071951;28;20051;-76
2022/09/28 08:24:56;;;;;;;15.65;10.23;;;10.10;99.90;;;;;;5071467;28;20040;-76
2022/09/28 08:27:22;;;;;;;19.85;10.38;;;10.20;99.90;;;;;;5071374;28;20119;-76
2022/09/28 08:29:48;;;;;;;15.38;10.13;;;10.20;99.90;;;;;;5071006;28;20494;-76
2022/09/28 08:32:15;;;;;;;14.25;8.93;;;10.30;99.90;;;;;;5073012;28;20036;-76
2022/09/28 08:34:41;;;;;;;12.57;8.60;;;10.30;99.90;;;;;;5057118;28;20041;-76
2022/09/28 08:37:11;;;;;;;11.93;8.07;;;10.40;99.90;;;;;;5063166;28;20418;-77
2022/09/28 08:39:37;;;;;;;11.50;7.53;;;10.50;99.90;;;;;;5060679;28;20095;-76
2022/09/28 08:42:07;;;;;;;13.20;7.15;;;10.50;99.90;;;;;;5060278;28;20460;-76
2022/09/28 08:44:45;;;;;;;13.40;7.82;;;10.50;99.90;;;;;;5060731;28;20044;-76
2022/09/28 08:50:24;;;;;;;10.07;6.47;;;10.60;99.90;;;;;;5064345;28;20509;-76
2022/09/28 08:52:56;;;;;;;11.85;6.90;;;10.70;99.90;;;;;;5064529;28;20041;-76
2022/09/28 08:55:31;;;;;;;10.97;6.73;;;10.70;99.90;;;;;;5054006;28;20071;-77
2022/09/28 08:58:03;;;;;;;15.60;7.82;;;10.70;99.90;;;;;;5061069;28;20037;-75
2022/09/28 09:00:38;;;;;;;10.33;6.63;;;10.70;99.90;;;;;;5070836;28;20063;-75
2022/09/28 09:03:13;;;;;;;11.25;6.70;;;10.70;99.90;;;;;;5067616;28;20040;-76
2022/09/28 09:06:01;;;;;;;11.25;6.78;;;10.70;99.90;;;;;;5068557;28;20044;-75
2022/09/28 09:08:56;;;;;;;9.85;5.85;;;10.80;99.90;;;;;;5084421;28;20123;-75
2022/09/28 09:11:43;;;;;;;10.38;5.85;;;10.90;99.90;;;;;;5068612;28;20479;-75
2022/09/28 09:14:37;;;;;;;9.80;5.53;;;10.90;99.90;;;;;;5069236;28;20197;-75
2022/09/28 09:17:30;;;;;;;10.98;6.70;;;11.00;99.90;;;;;;5070853;28;20055;-75
2022/09/28 09:19:56;;;;;;;;;;;11.10;99.90;;;;;;5067596;28;20120;-75
2022/09/28 09:22:40;;;;;;;8.73;5.70;;;11.10;99.90;;;;;;5068439;28;20003;-75
2022/09/28 09:25:19;;;;;;;9.68;5.38;;;11.20;99.90;;;;;;5070207;28;20048;-75
2022/09/28 09:28:06;;;;;;;8.27;5.30;;;11.20;99.90;;;;;;5070505;28;20072;-75
2022/09/28 09:30:46;;;;;;;10.57;5.80;;;11.30;99.90;;;;;;5070095;28;20508;-75
2022/09/28 09:33:30;;;;;;;9.32;5.38;;;11.40;99.90;;;;;;5071090;28;20435;-75
2022/09/28 09:36:27;;;;;;;8.98;5.70;;;11.40;99.90;;;;;;5067372;28;20044;-75
2022/09/28 09:39:20;;;;;;;8.15;5.30;;;11.40;99.90;;;;;;5071086;28;20032;-75
2022/09/28 09:42:28;;;;;;;9.57;5.43;;;11.50;99.90;;;;;;5066117;28;20454;-75
2022/09/28 09:45:15;;;;;;;6.30;3.90;;;11.50;99.90;;;;;;5067429;28;20386;-75
2022/09/28 09:47:45;;;;;;;8.05;4.22;;;11.50;99.90;;;;;;5071690;28;20420;-75
2022/09/28 09:50:30;;;;;;;5.93;3.47;;;11.50;99.90;;;;;;5070982;28;20045;-75
2022/09/28 09:53:03;;;;;;;4.35;2.90;;;11.60;99.90;;;;;;5067239;28;20036;-75
2022/09/28 09:55:49;;;;;;;6.90;3.25;;;11.80;99.90;;;;;;5070544;28;20513;-75
2022/09/28 09:58:17;;;;;;;6.07;2.90;;;11.90;99.90;;;;;;5071183;28;20040;-75
2022/09/28 10:00:45;;;;;;;5.45;2.85;;;12.20;99.90;;;;;;5069993;28;20036;-75
2022/09/28 10:03:23;;;;;;;5.28;2.85;;;12.40;99.90;;;;;;5069661;28;20482;-75
2022/09/28 10:05:59;;;;;;;7.90;2.40;;;12.70;99.90;;;;;;5071561;28;20099;-75
2022/09/28 10:08:27;;;;;;;3.90;2.00;;;12.90;99.90;;;;;;5065737;28;20115;-75
2022/09/28 10:11:06;;;;;;;4.28;1.90;;;13.10;99.90;;;;;;5070185;28;20043;-75
2022/09/28 10:13:32;;;;;;;6.13;2.33;;;13.10;99.90;;;;;;5066241;28;20071;-75
2022/09/28 10:15:58;;;;;;;4.68;2.90;;;13.20;99.90;;;;;;5070137;28;20059;-75
2022/09/28 10:18:26;;;;;;;4.53;2.33;;;13.10;99.90;;;;;;5069435;28;20518;-75
2022/09/28 10:20:51;;;;;;;5.50;2.30;;;13.10;99.90;;;;;;5071209;28;20040;-75
2022/09/28 10:23:27;;;;;;;5.57;2.25;;;13.00;99.90;;;;;;5069881;28;20475;-75
2022/09/28 10:25:58;;;;;;;4.40;2.15;;;13.00;99.90;;;;;;5070078;28;20048;-75
2022/09/28 10:28:41;;;;;;;4.33;2.10;;;13.00;99.90;;;;;;5069375;28;20541;-75
2022/09/28 10:31:33;;;;;;;3.63;2.42;;;12.90;99.90;;;;;;5069775;28;20044;-76
2022/09/28 10:33:58;;;;;;;5.95;2.30;;;12.70;99.90;;;;;;5069657;28;20068;-75
2022/09/28 10:36:25;;;;;;;6.05;2.30;;;12.60;99.90;;;;;;5069920;28;20064;-75
2022/09/28 10:38:52;;;;;;;5.47;2.50;;;12.60;99.90;;;;;;5070460;28;20036;-75
2022/09/28 10:41:19;;;;;;;5.13;2.30;;;12.70;99.90;;;;;;5069652;28;20036;-75
2022/09/28 10:44:06;;;;;;;3.15;1.92;;;12.90;99.90;;;;;;5069349;28;20044;-75
2022/09/28 10:46:37;;;;;;;5.05;2.40;;;13.10;99.90;;;;;;5070107;28;20076;-75
2022/09/28 10:49:14;;;;;;;3.28;2.35;;;13.40;99.90;;;;;;5068872;28;20049;-75
2022/09/28 10:51:50;;;;;;;3.17;2.03;;;13.50;99.90;;;;;;5068791;28;20032;-75
2022/09/28 10:54:24;;;;;;;4.95;1.90;;;13.60;99.90;;;;;;5069669;28;20048;-75
2022/09/28 10:56:52;;;;;;;2.42;1.92;;;13.80;99.90;;;;;;5070355;28;20044;-75
2022/09/28 10:59:36;;;;;;;3.50;1.70;;;13.80;99.90;;;;;;5066193;28;20044;-75
2022/09/28 11:02:20;;;;;;;3.53;1.60;;;13.60;99.90;;;;;;5060469;28;20044;-75
2022/09/28 11:04:55;;;;;;;3.17;1.80;;;13.60;99.90;;;;;;5065884;28;20047;-75
2022/09/28 11:07:26;;;;;;;2.40;1.58;;;13.70;99.90;;;;;;5069238;28;20079;-76
2022/09/28 11:09:53;;;;;;;2.05;1.52;;;13.90;99.90;;;;;;5068388;28;20036;-75
2022/09/28 11:12:24;;;;;;;3.67;1.73;;;14.00;99.90;;;;;;5066668;28;20405;-75
2022/09/28 11:15:02;;;;;;;4.18;1.50;;;14.20;99.90;;;;;;5069506;28;20051;-76
2022/09/28 11:17:37;;;;;;;1.27;1.10;;;14.30;99.90;;;;;;5062623;28;20136;-76
2022/09/28 11:20:24;;;;;;;2.17;1.20;;;14.30;99.90;;;;;;5069101;28;20441;-75
2022/09/28 11:23:16;;;;;;;2.00;1.10;;;14.40;99.90;;;;;;5069612;28;20395;-75
2022/09/28 11:25:42;;;;;;;1.60;1.10;;;14.60;99.90;;;;;;5063944;28;20590;-75
2022/09/28 11:28:20;;;;;;;2.42;1.40;;;14.50;99.90;;;;;;5068936;28;20119;-76
2022/09/28 11:30:50;;;;;;;1.83;1.27;;;14.40;99.90;;;;;;5051485;28;20037;-75
2022/09/28 11:33:40;;;;;;;1.77;1.20;;;14.20;99.90;;;;;;5030648;28;20032;-75
2022/09/28 11:36:11;;;;;;;1.30;1.20;;;14.10;99.90;;;;;;5025124;28;20502;-76
2022/09/28 11:39:01;;;;;;;2.53;1.20;;;13.90;99.90;;;;;;5030208;28;20396;-77
2022/09/28 11:41:46;;;;;;;2.53;1.08;;;13.80;99.90;;;;;;5042300;28;20033;-77
2022/09/28 11:44:40;;;;;;;0.50;0.50;;;13.70;99.90;;;;;;5032199;28;20041;-77
2022/09/28 11:47:27;;;;;;;2.30;0.40;;;13.40;99.90;;;;;;5018307;28;20061;-76
2022/09/28 11:50:00;;;;;;;0.75;0.60;;;13.20;99.90;;;;;;5030955;28;20037;-76
2022/09/28 11:52:41;;;;;;;2.05;0.63;;;13.00;99.90;;;;;;5028420;28;20114;-76
2022/09/28 11:55:28;;;;;;;0.80;0.73;;;12.80;99.90;;;;;;5031733;28;20068;-76
2022/09/28 11:58:03;;;;;;;1.58;0.60;;;12.70;99.90;;;;;;5028151;28;20053;-77
2022/09/28 12:00:32;;;;;;;0.47;0.40;;;12.70;99.90;;;;;;5008606;28;20041;-78
2022/09/28 12:03:46;;;;;;;0.43;0.43;;;12.60;99.90;;;;;;5050467;28;20457;-75
2022/09/28 12:06:18;;;;;;;2.15;0.50;;;12.50;99.90;;;;;;4975685;28;20102;-77
2022/09/28 12:08:53;;;;;;;1.33;0.70;;;12.50;99.90;;;;;;5033361;28;20491;-76
2022/09/28 12:11:44;;;;;;;2.08;0.90;;;12.50;99.90;;;;;;5037746;28;20381;-77
2022/09/28 12:14:18;;;;;;;1.15;0.90;;;12.50;99.90;;;;;;5018226;28;20266;-76
2022/09/28 12:16:52;;;;;;;3.03;0.82;;;12.30;99.90;;;;;;5033110;28;20045;-76
2022/09/28 12:19:23;;;;;;;1.52;0.70;;;12.20;99.90;;;;;;5034661;28;20048;-77
2022/09/28 12:22:02;;;;;;;1.67;0.85;;;12.20;99.90;;;;;;5035244;28;20478;-76
2022/09/28 12:24:37;;;;;;;4.15;1.10;;;12.10;99.90;;;;;;5032317;28;20500;-77
2022/09/28 12:27:09;;;;;;;1.40;0.80;;;12.10;99.90;;;;;;5030463;28;20042;-77
2022/09/28 12:29:43;;;;;;;2.70;0.90;;;12.00;99.90;;;;;;5039711;28;20517;-77
2022/09/28 12:32:13;;;;;;;2.70;0.73;;;12.00;99.90;;;;;;5067185;28;20044;-77
2022/09/28 12:34:41;;;;;;;1.83;1.00;;;12.10;99.90;;;;;;5081464;28;20045;-76
2022/09/28 12:37:29;;;;;;;1.05;0.77;;;12.00;99.90;;;;;;5074818;28;20056;-77
2022/09/28 12:40:21;;;;;;;1.75;0.80;;;11.90;99.90;;;;;;5069569;28;20037;-76
2022/09/28 12:43:08;;;;;;;1.67;0.80;;;12.00;99.90;;;;;;5071062;28;20135;-76
2022/09/28 12:45:58;;;;;;;1.05;0.70;;;12.00;99.90;;;;;;5068402;28;20045;-76
2022/09/28 12:48:48;;;;;;;1.25;0.90;;;12.00;99.90;;;;;;5063603;28;20048;-77
2022/09/28 12:51:35;;;;;;;3.40;1.25;;;12.10;99.90;;;;;;5071455;28;20048;-76
2022/09/28 12:54:16;;;;;;;1.83;1.50;;;12.10;99.90;;;;;;5071466;28;20071;-76
2022/09/28 12:56:51;;;;;;;2.25;1.20;;;12.00;99.90;;;;;;5072089;28;20047;-78
2022/09/28 12:59:30;;;;;;;5.55;1.35;;;12.10;99.90;;;;;;5069030;28;20403;-78
2022/09/28 13:02:28;;;;;;;2.75;1.30;;;12.00;99.90;;;;;;5072405;28;20025;-77
2022/09/28 13:05:12;;;;;;;1.73;0.80;;;12.00;99.90;;;;;;5068729;28;20040;-76
2022/09/28 13:07:57;;;;;;;1.65;0.68;;;12.00;99.90;;;;;;5070994;28;20040;-76
2022/09/28 13:10:32;;;;;;;1.95;0.73;;;11.90;99.90;;;;;;5068874;28;20128;-76
2022/09/28 13:13:05;;;;;;;1.05;0.80;;;11.90;99.90;;;;;;5064174;28;20459;-76
2022/09/28 13:16:06;;;;;;;1.60;0.82;;;11.90;99.90;;;;;;5070500;28;20076;-76
2022/09/28 13:19:03;;;;;;;2.38;0.70;;;11.90;99.90;;;;;;5071918;28;20137;-76
2022/09/28 13:21:40;;;;;;;1.55;0.80;;;11.90;99.90;;;;;;5065188;28;20036;-77